Time;durP1;ratioP1;P1;durP2;ratioP2;P2;SDS_P1;SDS_P2;PMS_P1;PMS_P2;Temp;Humidity;BMP_temperature;BMP_pressure;BME280_temperature;BME280_humidity;BME280_pressure;Samples;Min_cycle;Max_cycle;Signal;HPM_P1;HPM_P2
2021/01/13 00:00:09;;;;;;;24.23;12.43;;;-0.90;99.90;;;;;;5086262;28;20119;-78
2021/01/13 00:02:36;;;;;;;26.00;12.65;;;-0.90;99.90;;;;;;5087704;28;20076;-77
2021/01/13 00:05:04;;;;;;;25.45;13.07;;;-0.90;99.90;;;;;;5065632;28;20040;-77
2021/01/13 00:07:37;;;;;;;24.13;12.98;;;-0.90;99.90;;;;;;5077327;28;20051;-78
2021/01/13 00:10:04;;;;;;;25.52;12.20;;;-1.00;99.90;;;;;;5084040;28;20496;-77
2021/01/13 00:12:31;;;;;;;24.67;11.80;;;-1.00;99.90;;;;;;5077968;28;20064;-77
2021/01/13 00:14:58;;;;;;;31.65;12.20;;;-1.00;99.90;;;;;;5081952;28;20121;-77
2021/01/13 00:17:25;;;;;;;20.98;11.40;;;-1.00;99.90;;;;;;5069295;28;20048;-78
2021/01/13 00:19:52;;;;;;;25.42;12.02;;;-1.00;99.90;;;;;;5073481;28;20095;-76
2021/01/13 00:22:18;;;;;;;27.75;12.05;;;-0.90;99.90;;;;;;5088589;28;20098;-76
2021/01/13 00:24:45;;;;;;;23.95;12.63;;;-0.80;99.90;;;;;;5065721;28;20056;-77
2021/01/13 00:27:11;;;;;;;24.75;12.68;;;-0.70;99.90;;;;;;5080690;28;20127;-77
2021/01/13 00:29:38;;;;;;;24.08;11.32;;;-0.60;99.90;;;;;;5086842;28;20044;-78
2021/01/13 00:32:04;;;;;;;18.05;11.10;;;-0.50;99.90;;;;;;5085304;28;20470;-76
2021/01/13 00:34:32;;;;;;;23.60;11.30;;;-0.40;99.90;;;;;;5072345;28;20036;-78
2021/01/13 00:36:58;;;;;;;23.95;11.10;;;-0.30;99.90;;;;;;5058816;28;20327;-76
2021/01/13 00:39:26;;;;;;;25.63;10.52;;;-0.20;99.90;;;;;;5082501;28;20094;-77
2021/01/13 00:41:53;;;;;;;21.10;9.52;;;-0.20;99.90;;;;;;5086782;28;20138;-76
2021/01/13 00:44:20;;;;;;;24.35;10.77;;;-0.10;99.90;;;;;;5086545;28;20048;-77
2021/01/13 00:46:46;;;;;;;19.83;11.07;;;-0.10;99.90;;;;;;5079586;28;20072;-77
2021/01/13 00:49:13;;;;;;;18.85;9.95;;;-0.10;99.90;;;;;;5061037;28;20127;-75
2021/01/13 00:51:41;;;;;;;19.85;10.90;;;0.00;99.90;;;;;;5072827;28;20058;-76
2021/01/13 00:54:11;;;;;;;14.90;10.65;;;0.00;99.90;;;;;;5085634;28;20105;-76
2021/01/13 00:56:43;;;;;;;21.63;10.50;;;0.00;99.90;;;;;;5085578;28;20064;-78
2021/01/13 00:59:14;;;;;;;26.05;10.75;;;0.00;99.90;;;;;;5086776;28;20196;-76
2021/01/13 01:01:42;;;;;;;19.63;10.20;;;0.00;99.90;;;;;;5074997;28;20483;-76
2021/01/13 01:04:12;;;;;;;17.90;9.63;;;0.00;99.90;;;;;;5078718;28;20062;-76
2021/01/13 01:06:39;;;;;;;19.25;9.20;;;0.10;99.90;;;;;;5071941;28;20733;-76
2021/01/13 01:09:06;;;;;;;19.55;9.88;;;0.10;99.90;;;;;;5085876;28;20133;-77
2021/01/13 01:11:37;;;;;;;20.63;8.82;;;0.10;99.90;;;;;;5071683;28;20096;-76
2021/01/13 01:14:05;;;;;;;19.40;9.45;;;0.10;99.90;;;;;;5086595;28;20042;-77
2021/01/13 01:16:34;;;;;;;19.73;8.70;;;0.10;99.90;;;;;;5086221;28;20051;-77
2021/01/13 01:19:01;;;;;;;17.98;8.65;;;0.10;99.90;;;;;;5061527;28;20048;-76
2021/01/13 01:21:28;;;;;;;18.25;8.23;;;0.10;99.90;;;;;;5079114;28;20177;-77
2021/01/13 01:23:55;;;;;;;15.95;7.40;;;0.20;99.90;;;;;;5085839;28;20539;-77
2021/01/13 01:26:22;;;;;;;15.63;7.85;;;0.10;99.90;;;;;;5076134;28;20055;-78
2021/01/13 01:28:49;;;;;;;14.77;7.80;;;0.10;99.90;;;;;;5086151;28;20131;-77
2021/01/13 01:31:16;;;;;;;26.60;7.72;;;0.20;99.90;;;;;;5085975;28;20116;-76
2021/01/13 01:33:43;;;;;;;17.00;8.00;;;0.20;99.90;;;;;;5084318;28;20113;-76
2021/01/13 01:36:10;;;;;;;14.50;8.00;;;0.20;99.90;;;;;;5058343;28;20098;-76
2021/01/13 01:38:36;;;;;;;13.85;7.50;;;0.10;99.90;;;;;;5075653;28;20048;-76
2021/01/13 01:41:08;;;;;;;14.27;7.65;;;0.20;99.90;;;;;;5073553;28;20094;-77
2021/01/13 01:43:35;;;;;;;14.85;7.60;;;0.20;99.90;;;;;;5059869;28;20079;-77
2021/01/13 01:46:04;;;;;;;14.55;7.35;;;0.20;99.90;;;;;;5075963;28;20683;-76
2021/01/13 01:48:51;;;;;;;15.90;7.32;;;0.20;99.90;;;;;;5080187;28;20135;-77
2021/01/13 01:51:26;;;;;;;19.38;7.10;;;0.20;99.90;;;;;;5059889;28;20109;-76
2021/01/13 01:54:06;;;;;;;11.95;6.80;;;0.20;99.90;;;;;;5074740;28;20056;-77
2021/01/13 01:56:38;;;;;;;12.60;6.80;;;0.30;99.90;;;;;;5053104;28;20078;-75
2021/01/13 01:59:12;;;;;;;14.27;7.20;;;0.30;99.90;;;;;;5057508;28;20118;-75
2021/01/13 02:01:43;;;;;;;14.40;7.13;;;0.30;99.90;;;;;;5050309;28;20505;-76
2021/01/13 02:04:28;;;;;;;13.02;6.28;;;0.30;99.90;;;;;;5057610;28;20127;-78
2021/01/13 02:06:58;;;;;;;13.45;6.55;;;0.30;99.90;;;;;;5048687;28;20106;-77
2021/01/13 02:09:28;;;;;;;14.32;6.60;;;0.20;99.90;;;;;;5075419;28;20052;-77
2021/01/13 02:11:57;;;;;;;15.27;7.25;;;0.20;99.90;;;;;;5047207;28;20056;-77
2021/01/13 02:14:26;;;;;;;10.80;6.85;;;0.20;99.90;;;;;;5075398;28;20048;-78
2021/01/13 02:16:57;;;;;;;13.00;6.15;;;0.20;99.90;;;;;;5081739;28;20773;-77
2021/01/13 02:19:53;;;;;;;14.50;7.60;;;0.20;99.90;;;;;;5075506;28;20180;-78
2021/01/13 02:22:26;;;;;;;19.65;6.95;;;0.20;99.90;;;;;;5054364;28;20076;-78
2021/01/13 02:25:11;;;;;;;16.92;7.38;;;0.20;99.90;;;;;;5080500;28;20412;-77
2021/01/13 02:28:03;;;;;;;11.82;6.90;;;0.10;99.90;;;;;;5063669;28;20036;-78
2021/01/13 02:30:42;;;;;;;14.02;7.18;;;0.10;99.90;;;;;;5046481;28;20072;-79
2021/01/13 02:33:24;;;;;;;17.20;6.95;;;0.00;99.90;;;;;;5071325;28;20410;-77
2021/01/13 02:36:20;;;;;;;11.40;6.72;;;0.10;99.90;;;;;;5066313;28;20059;-77
2021/01/13 02:38:54;;;;;;;17.40;7.22;;;0.10;99.90;;;;;;5076120;28;20055;-76
2021/01/13 02:41:34;;;;;;;18.65;7.47;;;0.10;99.90;;;;;;5061151;28;20134;-78
2021/01/13 02:44:07;;;;;;;15.57;7.40;;;0.10;99.90;;;;;;5075836;28;20129;-77
2021/01/13 02:46:36;;;;;;;17.42;7.05;;;0.10;99.90;;;;;;5069613;28;20115;-76
2021/01/13 02:49:03;;;;;;;16.95;7.85;;;0.10;99.90;;;;;;5075994;28;20044;-77
2021/01/13 02:51:31;;;;;;;12.68;6.70;;;0.10;99.90;;;;;;5084850;28;20557;-76
2021/01/13 02:54:12;;;;;;;17.65;7.00;;;0.20;99.90;;;;;;5083941;28;20044;-76
2021/01/13 02:56:42;;;;;;;12.52;6.97;;;0.10;99.90;;;;;;5065414;28;20079;-78
2021/01/13 02:59:10;;;;;;;10.63;6.78;;;0.10;99.90;;;;;;5066803;28;20052;-78
2021/01/13 03:01:41;;;;;;;8.95;6.20;;;0.10;99.90;;;;;;5084604;28;20097;-76
2021/01/13 03:04:09;;;;;;;15.23;6.25;;;0.10;99.90;;;;;;5060585;28;20040;-76
2021/01/13 03:06:37;;;;;;;14.27;6.70;;;0.10;99.90;;;;;;5074116;28;20075;-76
2021/01/13 03:09:07;;;;;;;13.77;6.85;;;0.10;99.90;;;;;;5088211;28;20130;-76
2021/01/13 03:11:35;;;;;;;16.25;6.65;;;0.10;99.90;;;;;;5086082;28;20137;-76
2021/01/13 03:14:14;;;;;;;21.80;7.13;;;0.10;99.90;;;;;;5080314;28;20227;-77
2021/01/13 03:16:45;;;;;;;17.88;7.40;;;0.10;99.90;;;;;;5083535;28;20077;-76
2021/01/13 03:19:45;;;;;;;15.45;6.63;;;0.10;99.90;;;;;;5087787;28;20048;-77
2021/01/13 03:22:28;;;;;;;11.82;6.28;;;0.00;99.90;;;;;;5088081;28;20108;-77
2021/01/13 03:25:04;;;;;;;16.90;7.15;;;0.00;99.90;;;;;;5083745;28;20080;-77
2021/01/13 03:27:36;;;;;;;15.23;7.00;;;0.00;99.90;;;;;;5070122;28;20124;-78
2021/01/13 03:30:05;;;;;;;15.65;6.80;;;-0.10;99.90;;;;;;5081444;28;20132;-77
2021/01/13 03:32:56;;;;;;;9.77;6.32;;;-0.10;99.90;;;;;;5086020;28;20071;-76
2021/01/13 03:35:36;;;;;;;19.05;6.20;;;-0.10;99.90;;;;;;5082505;28;20466;-79
2021/01/13 03:38:02;;;;;;;15.30;7.22;;;-0.10;99.90;;;;;;5088331;28;20090;-76
2021/01/13 03:40:31;;;;;;;15.55;7.13;;;-0.10;99.90;;;;;;5066421;28;20108;-78
2021/01/13 03:42:59;;;;;;;16.38;7.00;;;0.00;99.90;;;;;;5056827;28;20818;-78
2021/01/13 03:45:39;;;;;;;12.90;7.38;;;0.00;99.90;;;;;;5073826;28;20056;-78
2021/01/13 03:48:10;;;;;;;15.98;7.03;;;0.00;99.90;;;;;;5067612;28;20049;-77
2021/01/13 03:50:43;;;;;;;15.07;7.18;;;0.00;99.90;;;;;;5050424;28;20064;-78
2021/01/13 03:53:14;;;;;;;16.85;6.45;;;-0.10;99.90;;;;;;5088065;28;20097;-77
2021/01/13 03:55:43;;;;;;;13.80;7.00;;;-0.10;99.90;;;;;;5064729;28;20414;-79
2021/01/13 03:58:14;;;;;;;12.70;6.75;;;-0.20;99.90;;;;;;5073608;28;20048;-77
2021/01/13 04:01:02;;;;;;;13.05;6.85;;;-0.20;99.90;;;;;;5055742;28;20056;-77
2021/01/13 04:03:35;;;;;;;10.65;6.72;;;-0.10;99.90;;;;;;5072794;28;20076;-78
2021/01/13 04:06:05;;;;;;;19.25;7.43;;;-0.10;99.90;;;;;;5087055;28;20417;-77
2021/01/13 04:08:39;;;;;;;14.35;7.35;;;-0.10;99.90;;;;;;5087389;28;20121;-77
2021/01/13 04:11:28;;;;;;;13.40;7.40;;;-0.10;99.90;;;;;;5086305;28;20131;-77
2021/01/13 04:14:02;;;;;;;12.20;6.50;;;-0.10;99.90;;;;;;5087446;28;20067;-76
2021/01/13 04:16:37;;;;;;;12.95;7.28;;;-0.10;99.90;;;;;;5086648;28;20052;-77
2021/01/13 04:19:05;;;;;;;17.17;7.55;;;-0.10;99.90;;;;;;5086806;28;20052;-77
2021/01/13 04:21:33;;;;;;;11.55;6.65;;;0.00;99.90;;;;;;5084990;28;20127;-76
2021/01/13 04:24:00;;;;;;;11.65;6.68;;;0.00;99.90;;;;;;5074876;28;20108;-76
2021/01/13 04:26:51;;;;;;;10.90;6.35;;;0.00;99.90;;;;;;5058069;28;20039;-77
2021/01/13 04:29:18;;;;;;;13.82;6.28;;;0.00;99.90;;;;;;5076866;28;20114;-77
2021/01/13 04:31:44;;;;;;;13.68;6.45;;;0.00;99.90;;;;;;5082551;28;20592;-77
2021/01/13 04:34:11;;;;;;;15.70;6.22;;;0.10;99.90;;;;;;5061482;28;20551;-78
2021/01/13 04:36:45;;;;;;;14.52;6.38;;;0.00;99.90;;;;;;5081317;28;20119;-78
2021/01/13 04:39:13;;;;;;;11.35;5.82;;;0.10;99.90;;;;;;5086298;28;20136;-78
2021/01/13 04:42:04;;;;;;;12.73;6.40;;;0.10;99.90;;;;;;5071931;28;20672;-77
2021/01/13 04:44:37;;;;;;;20.73;8.75;;;0.10;99.90;;;;;;5073721;28;20044;-79
2021/01/13 04:47:09;;;;;;;12.38;6.75;;;0.10;99.90;;;;;;5072356;28;20197;-77
2021/01/13 04:49:37;;;;;;;13.48;6.72;;;0.10;99.90;;;;;;5059761;28;20052;-78
2021/01/13 04:52:17;;;;;;;11.57;7.03;;;0.10;99.90;;;;;;5049884;28;20044;-77
2021/01/13 04:54:48;;;;;;;20.50;6.45;;;0.10;99.90;;;;;;5074511;28;20114;-76
2021/01/13 04:57:36;;;;;;;11.95;6.28;;;0.10;99.90;;;;;;5082177;28;20048;-75
2021/01/13 05:00:11;;;;;;;13.77;7.25;;;0.10;99.90;;;;;;5086047;28;20073;-77
2021/01/13 05:03:15;;;;;;;16.00;7.43;;;0.10;99.90;;;;;;5081950;28;20040;-77
2021/01/13 05:05:48;;;;;;;10.93;6.80;;;0.00;99.90;;;;;;5071326;28;20048;-77
2021/01/13 05:08:18;;;;;;;15.00;7.38;;;0.10;99.90;;;;;;5062643;28;20724;-77
2021/01/13 05:10:50;;;;;;;12.13;6.28;;;0.00;99.90;;;;;;5065418;28;20075;-76
2021/01/13 05:13:17;;;;;;;18.70;6.90;;;0.00;99.90;;;;;;5062227;28;20134;-78
2021/01/13 05:15:57;;;;;;;18.88;6.90;;;0.00;99.90;;;;;;5066049;28;20052;-77
2021/01/13 05:18:49;;;;;;;20.02;6.90;;;0.00;99.90;;;;;;5079391;28;20037;-77
2021/01/13 05:21:20;;;;;;;10.32;6.90;;;0.00;99.90;;;;;;5079139;28;20080;-77
2021/01/13 05:23:54;;;;;;;15.13;7.45;;;0.00;99.90;;;;;;5085754;28;20708;-84
2021/01/13 05:26:23;;;;;;;18.08;7.47;;;0.00;99.90;;;;;;5082557;28;20138;-86
2021/01/13 05:29:03;;;;;;;14.38;6.10;;;0.00;99.90;;;;;;5072496;28;20077;-83
2021/01/13 05:31:33;;;;;;;20.15;7.30;;;0.00;99.90;;;;;;5057943;28;20510;-87
2021/01/13 05:34:02;;;;;;;11.27;6.35;;;0.00;99.90;;;;;;5065021;28;20040;-87
2021/01/13 05:36:32;;;;;;;16.83;8.10;;;0.00;99.90;;;;;;5067132;28;20052;-86
2021/01/13 05:39:06;;;;;;;18.15;7.50;;;0.00;99.90;;;;;;5083010;28;20076;-83
2021/01/13 05:41:37;;;;;;;13.95;6.85;;;-0.10;99.90;;;;;;5080792;28;20040;-84
2021/01/13 05:44:04;;;;;;;16.33;7.68;;;-0.10;99.90;;;;;;5067564;28;20105;-85
2021/01/13 05:46:49;;;;;;;15.52;7.78;;;-0.10;99.90;;;;;;5082517;28;20076;-82
2021/01/13 05:49:16;;;;;;;19.17;8.32;;;0.00;99.90;;;;;;5061340;28;20087;-81
2021/01/13 05:51:43;;;;;;;16.65;7.40;;;0.00;99.90;;;;;;5085367;28;20043;-81
2021/01/13 05:54:16;;;;;;;14.23;7.75;;;0.00;99.90;;;;;;5064497;28;20124;-80
2021/01/13 05:56:45;;;;;;;17.77;7.68;;;0.00;99.90;;;;;;5056165;28;20052;-80
2021/01/13 05:59:11;;;;;;;21.45;7.95;;;0.00;99.90;;;;;;5079784;28;20044;-80
2021/01/13 06:01:56;;;;;;;27.77;10.13;;;0.00;99.90;;;;;;5084591;28;20048;-79
2021/01/13 06:04:23;;;;;;;27.70;9.60;;;0.00;99.90;;;;;;5065432;28;20451;-77
2021/01/13 06:06:56;;;;;;;22.55;10.68;;;0.00;99.90;;;;;;5059157;28;20040;-76
2021/01/13 06:09:23;;;;;;;16.85;8.73;;;0.00;99.90;;;;;;5077588;28;20064;-77
2021/01/13 06:11:55;;;;;;;21.52;9.43;;;-0.10;99.90;;;;;;5079993;28;20494;-76
2021/01/13 06:14:27;;;;;;;21.27;9.63;;;-0.10;99.90;;;;;;5072119;28;20053;-78
2021/01/13 06:16:54;;;;;;;21.88;9.35;;;-0.10;99.90;;;;;;5071115;28;20059;-76
2021/01/13 06:19:30;;;;;;;14.50;9.27;;;-0.10;99.90;;;;;;5081756;28;20036;-77
2021/01/13 06:22:32;;;;;;;25.95;10.85;;;-0.10;99.90;;;;;;5065671;28;20124;-76
2021/01/13 06:25:01;;;;;;;14.95;7.25;;;-0.10;99.90;;;;;;5058326;28;20675;-76
2021/01/13 06:28:05;;;;;;;20.20;9.55;;;-0.10;99.90;;;;;;5082490;28;21008;-78
2021/01/13 06:30:33;;;;;;;18.23;10.30;;;0.00;99.90;;;;;;5066292;28;20040;-78
2021/01/13 06:33:25;;;;;;;19.10;10.82;;;0.00;99.90;;;;;;5078823;28;20044;-77
2021/01/13 06:36:28;;;;;;;20.35;10.88;;;-0.10;99.90;;;;;;5080400;28;20044;-77
2021/01/13 06:38:59;;;;;;;19.75;10.38;;;0.00;99.90;;;;;;5075313;28;20052;-77
2021/01/13 06:41:28;;;;;;;22.08;9.98;;;0.00;99.90;;;;;;5085564;28;20559;-78
2021/01/13 06:43:59;;;;;;;20.50;10.70;;;-0.10;99.90;;;;;;5087839;28;20054;-76
2021/01/13 06:46:27;;;;;;;20.43;10.10;;;-0.10;99.90;;;;;;5080856;28;20055;-78
2021/01/13 06:48:55;;;;;;;23.35;11.45;;;-0.10;99.90;;;;;;5088170;28;20052;-77
2021/01/13 06:51:23;;;;;;;27.35;12.38;;;-0.20;99.90;;;;;;5088040;28;20044;-76
2021/01/13 06:53:50;;;;;;;25.73;13.52;;;-0.20;99.90;;;;;;5066629;28;20041;-76
2021/01/13 06:56:19;;;;;;;26.83;13.95;;;-0.30;99.90;;;;;;5083196;28;20102;-79
2021/01/13 06:59:02;;;;;;;20.65;13.48;;;-0.30;99.90;;;;;;5083777;28;20425;-78
2021/01/13 07:01:29;;;;;;;27.73;13.70;;;-0.40;99.90;;;;;;5088373;28;20052;-78
2021/01/13 07:04:01;;;;;;;25.55;13.50;;;-0.50;99.90;;;;;;5084910;28;20102;-79
2021/01/13 07:06:30;;;;;;;23.13;14.07;;;-0.60;99.90;;;;;;5077172;28;20044;-78
2021/01/13 07:08:58;;;;;;;29.83;14.43;;;-0.60;99.90;;;;;;5077878;28;20779;-78
2021/01/13 07:11:30;;;;;;;22.83;14.00;;;-0.60;99.90;;;;;;5066214;28;20101;-77
2021/01/13 07:14:01;;;;;;;35.35;16.58;;;-0.60;99.90;;;;;;5086599;28;20406;-77
2021/01/13 07:16:32;;;;;;;33.45;16.92;;;-0.70;99.90;;;;;;5057478;28;20573;-78
2021/01/13 07:19:02;;;;;;;33.33;17.67;;;-0.70;99.90;;;;;;5087788;28;20139;-77
2021/01/13 07:21:40;;;;;;;34.40;16.63;;;-0.70;99.90;;;;;;5069572;28;20548;-76
2021/01/13 07:24:16;;;;;;;30.23;17.92;;;-0.70;99.90;;;;;;5088049;28;20490;-78
2021/01/13 07:26:44;;;;;;;33.20;16.80;;;-0.60;99.90;;;;;;5084761;28;20072;-76
2021/01/13 07:29:11;;;;;;;28.90;17.05;;;-0.60;99.90;;;;;;5087648;28;20067;-77
2021/01/13 07:31:38;;;;;;;31.85;16.60;;;-0.70;99.90;;;;;;5087730;28;20139;-78
2021/01/13 07:34:34;;;;;;;31.80;17.35;;;-0.70;99.90;;;;;;5088218;28;20147;-78
2021/01/13 07:37:03;;;;;;;26.52;16.85;;;-0.80;99.90;;;;;;5084943;28;20139;-79
2021/01/13 07:40:32;;;;;;;33.47;16.63;;;-0.80;99.90;;;;;;5065349;28;20045;-77
2021/01/13 07:43:07;;;;;;;42.45;22.98;;;-0.80;99.90;;;;;;5056876;28;20518;-78
2021/01/13 07:45:40;;;;;;;30.13;18.58;;;-0.80;99.90;;;;;;5064044;28;20544;-77
2021/01/13 07:48:13;;;;;;;32.80;17.38;;;-0.70;99.90;;;;;;5083272;28;20040;-78
2021/01/13 07:50:51;;;;;;;36.72;20.52;;;-0.70;99.90;;;;;;5079145;28;20056;-77
2021/01/13 07:53:38;;;;;;;38.08;19.27;;;-0.70;99.90;;;;;;5057486;28;20053;-78
2021/01/13 07:56:11;;;;;;;38.20;20.42;;;-0.60;99.90;;;;;;5080082;28;20040;-79
2021/01/13 07:59:10;;;;;;;37.53;19.10;;;-0.70;99.90;;;;;;5080988;28;20081;-79
2021/01/13 08:01:47;;;;;;;31.95;19.65;;;-0.70;99.90;;;;;;5079350;28;20068;-76
2021/01/13 08:04:42;;;;;;;31.50;17.98;;;-0.60;99.90;;;;;;5086337;28;20079;-76
2021/01/13 08:07:16;;;;;;;29.65;18.55;;;-0.60;99.90;;;;;;5059651;28;20102;-78
2021/01/13 08:10:07;;;;;;;36.20;17.48;;;-0.60;99.90;;;;;;5085349;28;20121;-75
2021/01/13 08:13:14;;;;;;;34.50;17.70;;;-0.50;99.90;;;;;;5085486;28;20040;-76
2021/01/13 08:16:01;;;;;;;;;;;;;;;;;;;;;
2021/01/13 08:19:23;;;;;;;35.28;18.48;;;-0.50;99.90;;;;;;5083863;28;20066;-76
2021/01/13 08:21:56;;;;;;;32.22;18.00;;;-0.50;99.90;;;;;;5067373;28;20067;-76
2021/01/13 08:24:33;;;;;;;29.17;15.82;;;-0.40;99.90;;;;;;5068125;28;20044;-77
2021/01/13 08:27:04;;;;;;;32.47;14.95;;;-0.40;99.90;;;;;;5084637;28;20689;-76
2021/01/13 08:29:53;;;;;;;27.35;14.80;;;-0.30;99.90;;;;;;5085550;28;20492;-76
2021/01/13 08:32:28;;;;;;;26.38;14.75;;;-0.20;99.90;;;;;;5083821;28;20048;-77
2021/01/13 08:35:05;;;;;;;25.95;14.00;;;-0.10;99.90;;;;;;5066497;28;20052;-76
2021/01/13 08:38:10;;;;;;;24.48;13.52;;;0.00;99.90;;;;;;5083926;28;20140;-76
2021/01/13 08:40:38;;;;;;;23.95;12.05;;;0.20;99.90;;;;;;5077913;28;20074;-77
2021/01/13 08:43:18;;;;;;;27.33;11.50;;;0.30;99.90;;;;;;5084407;28;20087;-76
2021/01/13 08:46:04;;;;;;;24.98;10.25;;;0.50;99.90;;;;;;5066336;28;20406;-76
2021/01/13 08:48:43;;;;;;;18.60;9.45;;;0.70;99.90;;;;;;5080493;28;20067;-76
2021/01/13 08:51:15;;;;;;;15.18;9.23;;;0.80;99.90;;;;;;5061146;28;20541;-76
2021/01/13 08:53:50;;;;;;;21.15;9.00;;;0.90;99.90;;;;;;5082108;28;20044;-77
2021/01/13 08:57:12;;;;;;;19.98;8.82;;;1.10;99.90;;;;;;5059156;28;20040;-77
2021/01/13 08:59:51;;;;;;;13.35;7.25;;;1.40;99.90;;;;;;5060303;28;20134;-77
2021/01/13 09:02:57;;;;;;;14.00;7.63;;;1.50;99.90;;;;;;5082979;28;20127;-77
2021/01/13 09:09:13;;;;;;;15.93;7.47;;;1.50;99.90;;;;;;5083234;28;20066;-76
2021/01/13 09:11:58;;;;;;;15.75;7.10;;;1.60;99.90;;;;;;5063405;28;21434;-78
2021/01/13 09:14:36;;;;;;;12.93;7.45;;;1.50;99.90;;;;;;5064187;28;20425;-77
2021/01/13 09:17:13;;;;;;;;;;;1.50;99.90;;;;;;5082264;28;20115;-78
2021/01/13 09:20:00;;;;;;;13.73;7.40;;;1.40;99.90;;;;;;5034503;28;19924;-77
2021/01/13 09:23:22;;;;;;;14.05;7.00;;;1.40;99.90;;;;;;5082339;28;20290;-78
2021/01/13 09:26:18;;;;;;;17.65;6.75;;;1.40;99.90;;;;;;5077806;28;20781;-77
2021/01/13 09:29:11;;;;;;;9.93;5.15;;;1.50;99.90;;;;;;5067380;28;20443;-77
2021/01/13 09:32:12;;;;;;;8.63;4.47;;;1.50;99.90;;;;;;5082214;28;20053;-78
2021/01/13 09:34:50;;;;;;;10.30;3.67;;;1.40;99.90;;;;;;5074002;28;20545;-77
2021/01/13 09:37:25;;;;;;;9.32;3.78;;;1.40;99.90;;;;;;5082870;28;20443;-77
2021/01/13 09:40:04;;;;;;;13.43;3.92;;;1.40;99.90;;;;;;5083006;28;20108;-78
2021/01/13 09:42:45;;;;;;;15.10;5.50;;;1.40;99.90;;;;;;5057000;28;20455;-77
2021/01/13 09:45:28;;;;;;;12.13;4.65;;;1.40;99.90;;;;;;5083303;28;20040;-78
2021/01/13 09:48:19;;;;;;;12.18;4.88;;;1.40;99.90;;;;;;5082091;28;20048;-77
2021/01/13 09:51:14;;;;;;;14.38;4.80;;;1.40;99.90;;;;;;5083429;28;20123;-77
2021/01/13 09:54:01;;;;;;;15.00;5.20;;;1.40;99.90;;;;;;5080975;28;20052;-78
2021/01/13 09:56:40;;;;;;;12.35;6.43;;;1.40;99.90;;;;;;5062679;28;20040;-77
2021/01/13 09:59:11;;;;;;;11.95;6.78;;;1.40;99.90;;;;;;5084043;28;20931;-77
2021/01/13 10:01:57;;;;;;;14.02;7.45;;;1.40;99.90;;;;;;5081694;28;20072;-77
2021/01/13 10:04:33;;;;;;;15.40;7.70;;;1.40;99.90;;;;;;5084255;28;20044;-77
2021/01/13 10:07:12;;;;;;;16.23;7.57;;;1.30;99.90;;;;;;5082844;28;20573;-75
2021/01/13 10:10:07;;;;;;;13.57;7.85;;;1.40;99.90;;;;;;5082956;28;20154;-77
2021/01/13 10:12:50;;;;;;;17.17;7.28;;;1.40;99.90;;;;;;5065189;28;20506;-75
2021/01/13 10:15:35;;;;;;;14.02;6.82;;;1.60;99.90;;;;;;4999706;28;20120;-76
2021/01/13 10:18:56;;;;;;;13.18;6.07;;;1.70;99.90;;;;;;4943129;28;20051;-76
2021/01/13 10:21:39;;;;;;;12.13;7.22;;;1.70;99.90;;;;;;4921717;28;20607;-76
2021/01/13 10:50:50;;;;;;;12.35;6.68;;;2.20;99.90;;;;;;5077559;28;20068;-75
2021/01/13 11:01:04;;;;;;;9.52;6.57;;;2.70;99.90;;;;;;5080608;28;20085;-76
2021/01/13 11:03:36;;;;;;;12.98;5.97;;;2.80;99.90;;;;;;5083588;28;20056;-77
2021/01/13 11:06:03;;;;;;;;;;;3.40;99.90;;;;;;5083471;28;20040;-76
2021/01/13 11:08:36;;;;;;;10.57;6.10;;;3.50;99.90;;;;;;5065584;28;19920;-77
2021/01/13 11:11:09;;;;;;;12.02;6.38;;;3.50;99.90;;;;;;5078935;28;20055;-75
2021/01/13 11:13:45;;;;;;;;;;;3.30;99.90;;;;;;5067514;28;20060;-75
2021/01/13 11:16:12;;;;;;;9.35;5.65;;;3.00;99.90;;;;;;5083588;28;19928;-75
2021/01/13 11:18:41;;;;;;;12.10;6.15;;;2.80;99.90;;;;;;5084204;28;20048;-76
2021/01/13 11:21:11;;;;;;;14.77;7.15;;;2.80;99.90;;;;;;5082758;28;20052;-78
2021/01/13 11:23:47;;;;;;;13.88;6.35;;;2.90;99.90;;;;;;5084368;28;20032;-78
2021/01/13 11:26:14;;;;;;;9.93;5.03;;;2.70;99.90;;;;;;5072130;28;20094;-74
2021/01/13 11:28:43;;;;;;;9.27;4.43;;;2.70;99.90;;;;;;5087386;28;20058;-77
2021/01/13 11:31:12;;;;;;;12.02;4.82;;;2.60;99.90;;;;;;5084776;28;20051;-77
2021/01/13 11:33:47;;;;;;;7.85;4.47;;;2.60;99.90;;;;;;5086372;28;20044;-74
2021/01/13 11:36:28;;;;;;;9.98;3.20;;;2.60;99.90;;;;;;5078004;28;20121;-75
2021/01/13 11:38:58;;;;;;;5.75;3.20;;;2.60;99.90;;;;;;5081594;28;20048;-75
2021/01/13 11:41:49;;;;;;;7.53;3.75;;;2.90;99.90;;;;;;5061255;28;20053;-76
2021/01/13 11:44:32;;;;;;;7.28;3.28;;;2.80;99.90;;;;;;5086822;28;20054;-75
2021/01/13 11:47:19;;;;;;;11.98;3.85;;;2.50;99.90;;;;;;5057785;28;20048;-77
2021/01/13 11:49:54;;;;;;;12.02;3.55;;;2.30;99.90;;;;;;5081322;28;20077;-76
2021/01/13 11:52:27;;;;;;;9.75;4.00;;;2.20;99.90;;;;;;5065835;28;20090;-78
2021/01/13 11:54:56;;;;;;;14.93;4.57;;;2.30;99.90;;;;;;5061207;28;20040;-74
2021/01/13 11:57:34;;;;;;;12.43;4.47;;;2.20;99.90;;;;;;5087372;28;20119;-76
2021/01/13 12:00:19;;;;;;;14.82;4.32;;;2.10;99.90;;;;;;5077404;28;20052;-76
2021/01/13 12:02:54;;;;;;;10.38;4.43;;;2.10;99.90;;;;;;5079010;28;20051;-75
2021/01/13 12:05:39;;;;;;;13.10;4.82;;;2.30;99.90;;;;;;5079228;28;20067;-77
2021/01/13 12:08:11;;;;;;;8.30;3.65;;;2.50;99.90;;;;;;5081047;28;20120;-75
2021/01/13 12:10:47;;;;;;;4.03;3.00;;;2.50;99.90;;;;;;5076586;28;20108;-78
2021/01/13 12:13:30;;;;;;;9.10;2.78;;;2.80;99.90;;;;;;5062572;28;20552;-75
2021/01/13 12:16:22;;;;;;;9.48;2.95;;;3.10;99.90;;;;;;5077935;28;20101;-75
2021/01/13 12:18:58;;;;;;;6.85;2.45;;;3.40;99.90;;;;;;5085842;28;20048;-76
2021/01/13 12:21:33;;;;;;;16.73;4.18;;;3.70;99.90;;;;;;5066752;28;20051;-77
2021/01/13 12:24:23;;;;;;;10.93;3.10;;;3.70;99.90;;;;;;5082094;28;20096;-75
2021/01/13 12:27:02;;;;;;;6.72;2.80;;;3.80;99.90;;;;;;5066928;28;20172;-76
2021/01/13 12:29:34;;;;;;;7.72;2.65;;;5.10;99.90;;;;;;5065116;28;20075;-77
2021/01/13 12:32:29;;;;;;;7.85;2.20;;;5.40;99.90;;;;;;5083528;28;20067;-76
2021/01/13 12:35:13;;;;;;;6.65;1.90;;;4.80;99.90;;;;;;5086559;28;20069;-77
2021/01/13 12:37:50;;;;;;;6.82;2.33;;;3.90;99.90;;;;;;5084999;28;20741;-76
2021/01/13 12:40:30;;;;;;;4.30;1.73;;;3.70;99.90;;;;;;5081802;28;20170;-77
2021/01/13 12:43:39;;;;;;;10.00;4.13;;;3.70;99.90;;;;;;5078990;28;20048;-76
2021/01/13 12:46:14;;;;;;;8.57;2.50;;;3.30;99.90;;;;;;5085928;28;20471;-76
2021/01/13 12:48:41;;;;;;;8.65;2.75;;;3.00;99.90;;;;;;5086275;28;20237;-77
2021/01/13 12:51:09;;;;;;;9.82;3.30;;;2.80;99.90;;;;;;5086112;28;20127;-77
2021/01/13 12:53:36;;;;;;;13.30;3.80;;;2.70;99.90;;;;;;5083270;28;20040;-76
2021/01/13 12:56:06;;;;;;;8.57;3.28;;;3.30;99.90;;;;;;5085172;28;20048;-77
2021/01/13 12:58:35;;;;;;;3.83;1.77;;;5.30;99.90;;;;;;5085965;28;20058;-76
2021/01/13 13:01:07;;;;;;;5.15;1.83;;;6.90;93.40;;;;;;5066958;28;20059;-76
2021/01/13 13:03:42;;;;;;;;;;;8.20;83.40;;;;;;5081576;28;20647;-77
2021/01/13 13:06:12;;;;;;;5.38;1.70;;;7.80;78.60;;;;;;5084193;28;19919;-76
2021/01/13 13:08:40;;;;;;;7.07;1.80;;;7.20;81.00;;;;;;5085148;28;20067;-76
2021/01/13 13:11:10;;;;;;;9.30;2.35;;;6.40;84.10;;;;;;5083728;28;20068;-77
2021/01/13 13:13:42;;;;;;;5.95;2.50;;;5.30;97.40;;;;;;5082958;28;20068;-76
2021/01/13 13:16:19;;;;;;;5.32;1.90;;;5.20;99.40;;;;;;5055142;28;20121;-76
2021/01/13 13:18:55;;;;;;;5.13;2.08;;;5.10;99.90;;;;;;5063288;28;20040;-76
2021/01/13 13:21:35;;;;;;;7.25;2.90;;;4.20;99.90;;;;;;5081390;28;20557;-77
2021/01/13 13:24:13;;;;;;;3.33;2.00;;;3.70;99.90;;;;;;5072570;28;20044;-76
2021/01/13 13:26:45;;;;;;;8.75;2.67;;;4.50;99.90;;;;;;5081496;28;20048;-76
2021/01/13 13:29:14;;;;;;;6.15;2.63;;;5.00;99.90;;;;;;5066205;28;20422;-75
2021/01/13 13:31:42;;;;;;;4.60;2.08;;;5.20;99.30;;;;;;5084915;28;20079;-75
2021/01/13 13:34:10;;;;;;;3.80;1.80;;;5.70;92.30;;;;;;5082799;28;20102;-76
2021/01/13 13:36:37;;;;;;;6.90;2.10;;;6.30;91.50;;;;;;5086102;28;20161;-77
2021/01/13 13:39:03;;;;;;;5.60;2.33;;;6.80;81.80;;;;;;5060690;28;20052;-78
2021/01/13 13:41:34;;;;;;;5.35;2.45;;;6.60;85.20;;;;;;5081762;28;20044;-76
2021/01/13 13:44:02;;;;;;;9.43;2.22;;;7.10;84.30;;;;;;5084066;28;20119;-77
2021/01/13 13:46:28;;;;;;;7.03;2.30;;;7.10;83.50;;;;;;5084874;28;20516;-77
2021/01/13 13:48:55;;;;;;;4.60;2.28;;;8.00;79.40;;;;;;5062695;28;20045;-77
2021/01/13 13:51:22;;;;;;;4.75;2.35;;;8.10;75.30;;;;;;5075171;28;20044;-77
2021/01/13 13:53:53;;;;;;;7.75;2.88;;;6.30;82.20;;;;;;5083553;28;20597;-76
2021/01/13 13:56:20;;;;;;;7.53;2.67;;;4.60;97.10;;;;;;5077003;28;20499;-77
2021/01/13 13:58:47;;;;;;;11.50;2.58;;;3.90;99.90;;;;;;5053616;28;20117;-76
2021/01/13 14:01:17;;;;;;;5.18;2.50;;;3.90;99.90;;;;;;5065700;28;20056;-77
2021/01/13 14:03:46;;;;;;;7.22;2.85;;;4.10;99.90;;;;;;5084566;28;20063;-76
2021/01/13 14:06:21;;;;;;;7.28;2.80;;;3.80;99.90;;;;;;5045982;28;20143;-76